sensor_id;sensor_type;location;lat;lon;timestamp;temperature;humidity
13892;DHT22;7016;48.172;8.058;2024-02-14T00:02:40;5.80;99.90
13892;DHT22;7016;48.172;8.058;2024-02-14T00:05:27;5.70;99.90
13892;DHT22;7016;48.172;8.058;2024-02-14T00:08:14;5.70;99.90
13892;DHT22;7016;48.172;8.058;2024-02-14T00:11:00;5.70;99.90
13892;DHT22;7016;48.172;8.058;2024-02-14T00:13:48;5.90;99.90
13892;DHT22;7016;48.172;8.058;2024-02-14T00:16:35;5.80;99.90
13892;DHT22;7016;48.172;8.058;2024-02-14T00:19:23;5.80;99.90
13892;DHT22;7016;48.172;8.058;2024-02-14T00:22:10;5.90;99.90
13892;DHT22;7016;48.172;8.058;2024-02-14T00:24:56;5.80;99.90
13892;DHT22;7016;48.172;8.058;2024-02-14T00:27:42;5.90;99.90
13892;DHT22;7016;48.172;8.058;2024-02-14T00:30:29;5.80;99.90
13892;DHT22;7016;48.172;8.058;2024-02-14T00:33:15;5.80;99.90
13892;DHT22;7016;48.172;8.058;2024-02-14T00:36:02;5.70;99.90
13892;DHT22;7016;48.172;8.058;2024-02-14T00:38:48;5.70;99.90
13892;DHT22;7016;48.172;8.058;2024-02-14T00:41:35;5.60;99.90
13892;DHT22;7016;48.172;8.058;2024-02-14T00:44:21;5.60;99.90
13892;DHT22;7016;48.172;8.058;2024-02-14T00:47:07;5.50;99.90
13892;DHT22;7016;48.172;8.058;2024-02-14T00:49:53;5.50;99.90
13892;DHT22;7016;48.172;8.058;2024-02-14T00:52:39;5.60;99.90
13892;DHT22;7016;48.172;8.058;2024-02-14T00:55:26;5.30;99.90
13892;DHT22;7016;48.172;8.058;2024-02-14T00:58:12;5.40;99.90
13892;DHT22;7016;48.172;8.058;2024-02-14T01:00:58;5.40;99.90
13892;DHT22;7016;48.172;8.058;2024-02-14T01:03:44;5.50;99.90
13892;DHT22;7016;48.172;8.058;2024-02-14T01:06:31;5.50;99.90
13892;DHT22;7016;48.172;8.058;2024-02-14T01:09:19;5.40;99.90
13892;DHT22;7016;48.172;8.058;2024-02-14T01:12:05;5.40;99.90
13892;DHT22;7016;48.172;8.058;2024-02-14T01:14:51;5.50;99.90
13892;DHT22;7016;48.172;8.058;2024-02-14T01:17:40;5.60;99.90
13892;DHT22;7016;48.172;8.058;2024-02-14T01:20:29;5.50;99.90
13892;DHT22;7016;48.172;8.058;2024-02-14T01:23:15;5.40;99.90
13892;DHT22;7016;48.172;8.058;2024-02-14T01:26:01;5.50;99.90
13892;DHT22;7016;48.172;8.058;2024-02-14T01:28:48;5.50;99.90
13892;DHT22;7016;48.172;8.058;2024-02-14T01:31:34;5.60;99.90
13892;DHT22;7016;48.172;8.058;2024-02-14T01:34:20;5.60;99.90
13892;DHT22;7016;48.172;8.058;2024-02-14T01:37:08;5.60;99.90
13892;DHT22;7016;48.172;8.058;2024-02-14T01:39:56;5.50;99.90
13892;DHT22;7016;48.172;8.058;2024-02-14T01:42:42;5.60;99.90
13892;DHT22;7016;48.172;8.058;2024-02-14T01:45:28;5.60;99.90
13892;DHT22;7016;48.172;8.058;2024-02-14T01:48:15;5.60;99.90
13892;DHT22;7016;48.172;8.058;2024-02-14T01:51:05;5.60;99.90
13892;DHT22;7016;48.172;8.058;2024-02-14T01:53:55;5.60;99.90
13892;DHT22;7016;48.172;8.058;2024-02-14T01:56:45;5.50;99.90
13892;DHT22;7016;48.172;8.058;2024-02-14T01:59:34;5.50;99.90
13892;DHT22;7016;48.172;8.058;2024-02-14T02:02:28;5.50;99.90
13892;DHT22;7016;48.172;8.058;2024-02-14T02:05:17;5.20;99.90
13892;DHT22;7016;48.172;8.058;2024-02-14T02:08:07;5.10;99.90
13892;DHT22;7016;48.172;8.058;2024-02-14T02:10:54;5.20;99.90
13892;DHT22;7016;48.172;8.058;2024-02-14T02:13:40;5.20;99.90
13892;DHT22;7016;48.172;8.058;2024-02-14T02:16:26;5.20;99.90
13892;DHT22;7016;48.172;8.058;2024-02-14T02:24:36;5.30;99.90
13892;DHT22;7016;48.172;8.058;2024-02-14T02:27:22;5.40;99.90
13892;DHT22;7016;48.172;8.058;2024-02-14T02:30:08;5.40;99.90
13892;DHT22;7016;48.172;8.058;2024-02-14T02:32:56;5.30;99.90
13892;DHT22;7016;48.172;8.058;2024-02-14T02:35:42;5.10;99.90
13892;DHT22;7016;48.172;8.058;2024-02-14T02:38:35;5.10;99.90
13892;DHT22;7016;48.172;8.058;2024-02-14T02:41:27;5.30;99.90
13892;DHT22;7016;48.172;8.058;2024-02-14T02:44:13;5.20;99.90
13892;DHT22;7016;48.172;8.058;2024-02-14T02:46:59;5.00;99.90
13892;DHT22;7016;48.172;8.058;2024-02-14T02:49:46;5.00;99.90
13892;DHT22;7016;48.172;8.058;2024-02-14T02:52:32;5.20;99.90
13892;DHT22;7016;48.172;8.058;2024-02-14T02:55:19;5.30;99.90
13892;DHT22;7016;48.172;8.058;2024-02-14T02:58:11;5.10;99.90
13892;DHT22;7016;48.172;8.058;2024-02-14T03:00:57;4.20;99.90
13892;DHT22;7016;48.172;8.058;2024-02-14T03:03:44;5.40;99.90
13892;DHT22;7016;48.172;8.058;2024-02-14T03:06:30;5.40;99.90
13892;DHT22;7016;48.172;8.058;2024-02-14T03:09:16;5.30;99.90
13892;DHT22;7016;48.172;8.058;2024-02-14T03:12:04;5.30;99.90
13892;DHT22;7016;48.172;8.058;2024-02-14T03:14:50;5.30;99.90
13892;DHT22;7016;48.172;8.058;2024-02-14T03:17:41;5.30;99.90
13892;DHT22;7016;48.172;8.058;2024-02-14T03:20:30;5.40;99.90
13892;DHT22;7016;48.172;8.058;2024-02-14T03:23:16;5.60;99.90
13892;DHT22;7016;48.172;8.058;2024-02-14T03:26:03;5.40;99.90
13892;DHT22;7016;48.172;8.058;2024-02-14T03:28:53;5.40;99.90
13892;DHT22;7016;48.172;8.058;2024-02-14T03:31:40;5.60;99.90
13892;DHT22;7016;48.172;8.058;2024-02-14T03:34:26;5.60;99.90
13892;DHT22;7016;48.172;8.058;2024-02-14T03:37:16;5.60;99.90
13892;DHT22;7016;48.172;8.058;2024-02-14T03:40:04;5.70;99.90
13892;DHT22;7016;48.172;8.058;2024-02-14T03:42:51;5.80;99.90
13892;DHT22;7016;48.172;8.058;2024-02-14T03:45:37;6.10;99.90
13892;DHT22;7016;48.172;8.058;2024-02-14T03:48:23;6.10;99.90
13892;DHT22;7016;48.172;8.058;2024-02-14T03:51:10;6.10;99.90
13892;DHT22;7016;48.172;8.058;2024-02-14T03:53:57;6.30;99.90
13892;DHT22;7016;48.172;8.058;2024-02-14T03:56:44;6.30;99.90
13892;DHT22;7016;48.172;8.058;2024-02-14T03:59:30;6.40;99.90
13892;DHT22;7016;48.172;8.058;2024-02-14T04:02:16;6.40;99.90
13892;DHT22;7016;48.172;8.058;2024-02-14T04:05:03;6.30;99.90
13892;DHT22;7016;48.172;8.058;2024-02-14T04:07:50;6.10;99.90
13892;DHT22;7016;48.172;8.058;2024-02-14T04:10:39;6.30;99.90
13892;DHT22;7016;48.172;8.058;2024-02-14T04:13:25;6.40;99.90
13892;DHT22;7016;48.172;8.058;2024-02-14T04:16:11;6.50;99.90
13892;DHT22;7016;48.172;8.058;2024-02-14T04:18:57;9.00;99.90
13892;DHT22;7016;48.172;8.058;2024-02-14T04:21:44;6.70;99.90
13892;DHT22;7016;48.172;8.058;2024-02-14T04:24:33;6.80;99.90
13892;DHT22;7016;48.172;8.058;2024-02-14T04:27:19;6.90;99.90
13892;DHT22;7016;48.172;8.058;2024-02-14T04:30:06;7.00;99.90
13892;DHT22;7016;48.172;8.058;2024-02-14T04:32:52;7.00;99.90
13892;DHT22;7016;48.172;8.058;2024-02-14T04:35:38;7.40;99.90
13892;DHT22;7016;48.172;8.058;2024-02-14T04:38:24;7.40;99.90
13892;DHT22;7016;48.172;8.058;2024-02-14T04:41:10;7.40;99.90
13892;DHT22;7016;48.172;8.058;2024-02-14T04:43:56;7.60;99.90
13892;DHT22;7016;48.172;8.058;2024-02-14T04:46:43;7.80;99.90
13892;DHT22;7016;48.172;8.058;2024-02-14T04:49:30;7.80;99.90
13892;DHT22;7016;48.172;8.058;2024-02-14T04:52:17;7.80;99.90
13892;DHT22;7016;48.172;8.058;2024-02-14T04:55:03;7.90;99.90
13892;DHT22;7016;48.172;8.058;2024-02-14T04:57:49;7.90;99.90
13892;DHT22;7016;48.172;8.058;2024-02-14T05:00:35;8.00;99.90
13892;DHT22;7016;48.172;8.058;2024-02-14T05:03:22;8.10;99.90
13892;DHT22;7016;48.172;8.058;2024-02-14T05:06:10;8.20;99.90
13892;DHT22;7016;48.172;8.058;2024-02-14T05:08:56;8.30;99.90
13892;DHT22;7016;48.172;8.058;2024-02-14T05:11:45;8.30;99.90
13892;DHT22;7016;48.172;8.058;2024-02-14T05:14:38;8.30;99.90
13892;DHT22;7016;48.172;8.058;2024-02-14T05:17:24;8.50;99.90
13892;DHT22;7016;48.172;8.058;2024-02-14T05:20:10;8.40;99.90
13892;DHT22;7016;48.172;8.058;2024-02-14T05:22:57;8.30;99.90
13892;DHT22;7016;48.172;8.058;2024-02-14T05:25:43;8.50;99.90
13892;DHT22;7016;48.172;8.058;2024-02-14T05:28:30;8.50;99.90
13892;DHT22;7016;48.172;8.058;2024-02-14T05:31:16;8.50;99.90
13892;DHT22;7016;48.172;8.058;2024-02-14T05:34:03;8.50;99.90
13892;DHT22;7016;48.172;8.058;2024-02-14T05:36:49;8.60;99.90
13892;DHT22;7016;48.172;8.058;2024-02-14T05:39:35;8.70;99.90
13892;DHT22;7016;48.172;8.058;2024-02-14T05:42:21;8.60;99.90
13892;DHT22;7016;48.172;8.058;2024-02-14T05:45:09;8.80;99.90
13892;DHT22;7016;48.172;8.058;2024-02-14T05:47:55;8.80;99.90
13892;DHT22;7016;48.172;8.058;2024-02-14T05:50:42;8.80;99.90
13892;DHT22;7016;48.172;8.058;2024-02-14T05:53:28;8.90;99.90
13892;DHT22;7016;48.172;8.058;2024-02-14T05:56:15;9.00;99.90
13892;DHT22;7016;48.172;8.058;2024-02-14T05:59:01;9.00;99.90
13892;DHT22;7016;48.172;8.058;2024-02-14T06:01:47;9.00;99.90
13892;DHT22;7016;48.172;8.058;2024-02-14T06:04:33;9.10;99.90
13892;DHT22;7016;48.172;8.058;2024-02-14T06:07:19;9.10;99.90
13892;DHT22;7016;48.172;8.058;2024-02-14T06:10:06;9.10;99.90
13892;DHT22;7016;48.172;8.058;2024-02-14T06:12:52;9.00;99.90
13892;DHT22;7016;48.172;8.058;2024-02-14T06:15:38;9.00;99.90
13892;DHT22;7016;48.172;8.058;2024-02-14T06:18:25;9.10;99.90
13892;DHT22;7016;48.172;8.058;2024-02-14T06:21:11;9.00;99.90
13892;DHT22;7016;48.172;8.058;2024-02-14T06:23:57;9.10;99.90
13892;DHT22;7016;48.172;8.058;2024-02-14T06:26:45;9.20;99.90
13892;DHT22;7016;48.172;8.058;2024-02-14T06:29:31;9.20;99.90
13892;DHT22;7016;48.172;8.058;2024-02-14T06:32:17;9.30;99.90
13892;DHT22;7016;48.172;8.058;2024-02-14T06:35:04;9.30;99.90
13892;DHT22;7016;48.172;8.058;2024-02-14T06:37:50;9.30;99.90
13892;DHT22;7016;48.172;8.058;2024-02-14T06:40:36;9.40;99.90
13892;DHT22;7016;48.172;8.058;2024-02-14T06:43:22;9.50;99.90
13892;DHT22;7016;48.172;8.058;2024-02-14T06:46:09;9.60;99.90
13892;DHT22;7016;48.172;8.058;2024-02-14T06:48:55;9.60;99.90
13892;DHT22;7016;48.172;8.058;2024-02-14T06:51:42;9.60;99.90
13892;DHT22;7016;48.172;8.058;2024-02-14T06:54:29;9.50;99.90
13892;DHT22;7016;48.172;8.058;2024-02-14T06:57:16;9.60;99.90
13892;DHT22;7016;48.172;8.058;2024-02-14T07:00:06;9.70;99.90
13892;DHT22;7016;48.172;8.058;2024-02-14T07:02:55;9.70;99.90
13892;DHT22;7016;48.172;8.058;2024-02-14T07:05:42;9.80;99.90
13892;DHT22;7016;48.172;8.058;2024-02-14T07:08:29;9.80;99.90
13892;DHT22;7016;48.172;8.058;2024-02-14T07:11:16;9.80;99.90
13892;DHT22;7016;48.172;8.058;2024-02-14T07:14:02;9.90;99.90
13892;DHT22;7016;48.172;8.058;2024-02-14T07:16:48;9.90;99.90
13892;DHT22;7016;48.172;8.058;2024-02-14T07:19:35;9.90;99.90
13892;DHT22;7016;48.172;8.058;2024-02-14T07:22:21;9.90;99.90
13892;DHT22;7016;48.172;8.058;2024-02-14T07:25:07;10.00;99.90
13892;DHT22;7016;48.172;8.058;2024-02-14T07:27:54;10.10;99.90
13892;DHT22;7016;48.172;8.058;2024-02-14T07:30:40;10.10;99.90
13892;DHT22;7016;48.172;8.058;2024-02-14T07:33:26;10.10;99.90
13892;DHT22;7016;48.172;8.058;2024-02-14T07:36:13;10.00;99.90
13892;DHT22;7016;48.172;8.058;2024-02-14T07:39:01;10.00;99.90
13892;DHT22;7016;48.172;8.058;2024-02-14T07:41:48;9.90;99.90
13892;DHT22;7016;48.172;8.058;2024-02-14T07:44:34;9.90;99.90
13892;DHT22;7016;48.172;8.058;2024-02-14T07:47:20;9.90;99.90
13892;DHT22;7016;48.172;8.058;2024-02-14T07:50:09;10.00;99.90
13892;DHT22;7016;48.172;8.058;2024-02-14T07:52:55;9.90;99.90
13892;DHT22;7016;48.172;8.058;2024-02-14T07:55:43;9.90;99.90
13892;DHT22;7016;48.172;8.058;2024-02-14T07:58:29;9.90;99.90
13892;DHT22;7016;48.172;8.058;2024-02-14T08:01:16;9.90;99.90
13892;DHT22;7016;48.172;8.058;2024-02-14T08:04:02;9.90;99.90
13892;DHT22;7016;48.172;8.058;2024-02-14T08:06:50;9.90;99.90
13892;DHT22;7016;48.172;8.058;2024-02-14T08:09:36;10.00;99.90
13892;DHT22;7016;48.172;8.058;2024-02-14T08:12:22;10.00;99.90
13892;DHT22;7016;48.172;8.058;2024-02-14T08:15:13;10.10;99.90
13892;DHT22;7016;48.172;8.058;2024-02-14T08:18:03;10.00;99.90
13892;DHT22;7016;48.172;8.058;2024-02-14T08:20:49;10.00;99.90
13892;DHT22;7016;48.172;8.058;2024-02-14T08:23:35;10.00;99.90
13892;DHT22;7016;48.172;8.058;2024-02-14T08:26:24;10.00;99.90
13892;DHT22;7016;48.172;8.058;2024-02-14T08:29:10;10.10;99.90
13892;DHT22;7016;48.172;8.058;2024-02-14T08:31:57;10.00;99.90
13892;DHT22;7016;48.172;8.058;2024-02-14T08:34:48;9.90;99.90
13892;DHT22;7016;48.172;8.058;2024-02-14T08:37:34;11.90;99.90
13892;DHT22;7016;48.172;8.058;2024-02-14T08:40:22;10.00;99.90
13892;DHT22;7016;48.172;8.058;2024-02-14T08:43:08;9.80;99.90
13892;DHT22;7016;48.172;8.058;2024-02-14T08:45:55;9.90;99.90
13892;DHT22;7016;48.172;8.058;2024-02-14T08:48:44;9.80;99.90
13892;DHT22;7016;48.172;8.058;2024-02-14T08:51:35;9.80;99.90
13892;DHT22;7016;48.172;8.058;2024-02-14T08:54:22;9.80;99.90
13892;DHT22;7016;48.172;8.058;2024-02-14T08:57:10;9.70;99.90
13892;DHT22;7016;48.172;8.058;2024-02-14T08:59:58;9.60;99.90
13892;DHT22;7016;48.172;8.058;2024-02-14T09:02:46;9.60;99.90
13892;DHT22;7016;48.172;8.058;2024-02-14T09:05:33;9.70;99.90
13892;DHT22;7016;48.172;8.058;2024-02-14T09:08:19;9.70;99.90
13892;DHT22;7016;48.172;8.058;2024-02-14T09:11:06;9.70;99.90
13892;DHT22;7016;48.172;8.058;2024-02-14T09:13:57;9.70;99.90
13892;DHT22;7016;48.172;8.058;2024-02-14T09:16:53;9.80;99.90
13892;DHT22;7016;48.172;8.058;2024-02-14T09:19:39;9.80;99.90
13892;DHT22;7016;48.172;8.058;2024-02-14T09:22:25;9.80;99.90
13892;DHT22;7016;48.172;8.058;2024-02-14T09:25:11;9.80;99.90
13892;DHT22;7016;48.172;8.058;2024-02-14T09:27:59;10.00;99.90
13892;DHT22;7016;48.172;8.058;2024-02-14T09:30:45;10.00;99.90
13892;DHT22;7016;48.172;8.058;2024-02-14T09:33:32;9.90;99.90
13892;DHT22;7016;48.172;8.058;2024-02-14T09:36:20;10.10;99.90
13892;DHT22;7016;48.172;8.058;2024-02-14T09:39:06;10.10;99.90
13892;DHT22;7016;48.172;8.058;2024-02-14T09:41:56;10.10;99.90
13892;DHT22;7016;48.172;8.058;2024-02-14T09:44:45;10.10;99.90
13892;DHT22;7016;48.172;8.058;2024-02-14T09:47:33;10.00;99.90
13892;DHT22;7016;48.172;8.058;2024-02-14T09:50:20;10.00;99.90
13892;DHT22;7016;48.172;8.058;2024-02-14T09:53:07;10.20;99.90
13892;DHT22;7016;48.172;8.058;2024-02-14T09:55:54;10.40;99.90
13892;DHT22;7016;48.172;8.058;2024-02-14T09:58:41;10.40;99.90
13892;DHT22;7016;48.172;8.058;2024-02-14T10:01:27;10.40;99.90
13892;DHT22;7016;48.172;8.058;2024-02-14T10:04:13;10.60;99.90
13892;DHT22;7016;48.172;8.058;2024-02-14T10:06:59;10.60;99.90
13892;DHT22;7016;48.172;8.058;2024-02-14T10:09:47;10.70;99.90
13892;DHT22;7016;48.172;8.058;2024-02-14T10:12:34;10.60;99.90
13892;DHT22;7016;48.172;8.058;2024-02-14T10:15:26;10.80;99.90
13892;DHT22;7016;48.172;8.058;2024-02-14T10:18:14;10.80;99.90
13892;DHT22;7016;48.172;8.058;2024-02-14T10:21:01;10.80;99.90
13892;DHT22;7016;48.172;8.058;2024-02-14T10:23:50;10.90;99.90
13892;DHT22;7016;48.172;8.058;2024-02-14T10:26:38;11.00;99.90
13892;DHT22;7016;48.172;8.058;2024-02-14T10:29:25;11.00;99.90
13892;DHT22;7016;48.172;8.058;2024-02-14T10:32:15;11.10;99.90
13892;DHT22;7016;48.172;8.058;2024-02-14T10:35:04;11.00;99.90
13892;DHT22;7016;48.172;8.058;2024-02-14T10:38:00;11.00;99.90
13892;DHT22;7016;48.172;8.058;2024-02-14T10:40:47;10.90;99.90
13892;DHT22;7016;48.172;8.058;2024-02-14T10:43:34;10.90;99.90
13892;DHT22;7016;48.172;8.058;2024-02-14T10:46:23;11.00;99.90
13892;DHT22;7016;48.172;8.058;2024-02-14T10:49:12;11.10;99.90
13892;DHT22;7016;48.172;8.058;2024-02-14T10:52:02;11.30;99.90
13892;DHT22;7016;48.172;8.058;2024-02-14T10:54:56;11.30;99.90
13892;DHT22;7016;48.172;8.058;2024-02-14T10:57:45;11.30;99.90
13892;DHT22;7016;48.172;8.058;2024-02-14T11:00:32;11.40;99.90
13892;DHT22;7016;48.172;8.058;2024-02-14T11:03:18;11.40;99.90
13892;DHT22;7016;48.172;8.058;2024-02-14T11:06:05;11.50;99.90
13892;DHT22;7016;48.172;8.058;2024-02-14T11:09:05;11.50;99.90
13892;DHT22;7016;48.172;8.058;2024-02-14T11:12:00;11.60;99.90
13892;DHT22;7016;48.172;8.058;2024-02-14T11:14:48;11.80;99.90
13892;DHT22;7016;48.172;8.058;2024-02-14T11:17:39;11.90;99.90
13892;DHT22;7016;48.172;8.058;2024-02-14T11:20:35;12.00;99.90
13892;DHT22;7016;48.172;8.058;2024-02-14T11:23:21;11.80;99.90
13892;DHT22;7016;48.172;8.058;2024-02-14T11:26:15;11.50;99.90
13892;DHT22;7016;48.172;8.058;2024-02-14T11:29:04;11.60;99.90
13892;DHT22;7016;48.172;8.058;2024-02-14T11:31:59;11.80;99.90
13892;DHT22;7016;48.172;8.058;2024-02-14T11:34:56;11.90;99.90
13892;DHT22;7016;48.172;8.058;2024-02-14T11:37:43;12.00;99.90
13892;DHT22;7016;48.172;8.058;2024-02-14T11:40:29;12.00;99.90
13892;DHT22;7016;48.172;8.058;2024-02-14T11:43:19;11.90;99.90
13892;DHT22;7016;48.172;8.058;2024-02-14T11:46:06;12.10;99.90
13892;DHT22;7016;48.172;8.058;2024-02-14T11:48:52;12.10;99.90
13892;DHT22;7016;48.172;8.058;2024-02-14T11:51:39;12.20;99.90
13892;DHT22;7016;48.172;8.058;2024-02-14T11:54:27;12.20;99.90
13892;DHT22;7016;48.172;8.058;2024-02-14T11:57:17;12.20;99.90
13892;DHT22;7016;48.172;8.058;2024-02-14T12:00:04;12.30;99.90
13892;DHT22;7016;48.172;8.058;2024-02-14T12:02:52;12.40;99.90
13892;DHT22;7016;48.172;8.058;2024-02-14T12:05:39;12.50;99.90
13892;DHT22;7016;48.172;8.058;2024-02-14T12:08:25;12.60;99.90
13892;DHT22;7016;48.172;8.058;2024-02-14T12:11:13;12.70;99.90
13892;DHT22;7016;48.172;8.058;2024-02-14T12:14:06;12.70;99.90
13892;DHT22;7016;48.172;8.058;2024-02-14T12:16:56;12.50;99.90
13892;DHT22;7016;48.172;8.058;2024-02-14T12:19:45;12.50;99.90
13892;DHT22;7016;48.172;8.058;2024-02-14T12:22:34;12.40;99.90
13892;DHT22;7016;48.172;8.058;2024-02-14T12:25:20;12.80;99.90
13892;DHT22;7016;48.172;8.058;2024-02-14T12:28:07;12.80;99.90
13892;DHT22;7016;48.172;8.058;2024-02-14T12:30:53;12.80;99.90
13892;DHT22;7016;48.172;8.058;2024-02-14T12:33:44;12.60;99.90
13892;DHT22;7016;48.172;8.058;2024-02-14T12:36:37;12.50;99.90
13892;DHT22;7016;48.172;8.058;2024-02-14T12:39:37;12.50;99.90
13892;DHT22;7016;48.172;8.058;2024-02-14T12:42:24;12.40;99.90
13892;DHT22;7016;48.172;8.058;2024-02-14T12:45:12;12.40;99.90
13892;DHT22;7016;48.172;8.058;2024-02-14T12:47:59;12.60;99.90
13892;DHT22;7016;48.172;8.058;2024-02-14T12:50:45;12.80;99.90
13892;DHT22;7016;48.172;8.058;2024-02-14T12:53:34;12.70;99.90
13892;DHT22;7016;48.172;8.058;2024-02-14T12:56:22;12.80;99.90
13892;DHT22;7016;48.172;8.058;2024-02-14T12:59:16;12.80;99.90
13892;DHT22;7016;48.172;8.058;2024-02-14T13:02:14;13.00;99.90
13892;DHT22;7016;48.172;8.058;2024-02-14T13:05:01;13.00;99.90
13892;DHT22;7016;48.172;8.058;2024-02-14T13:07:50;13.20;99.90
13892;DHT22;7016;48.172;8.058;2024-02-14T13:10:37;13.20;99.90
13892;DHT22;7016;48.172;8.058;2024-02-14T13:13:23;13.20;99.90
13892;DHT22;7016;48.172;8.058;2024-02-14T13:16:09;13.30;99.90
13892;DHT22;7016;48.172;8.058;2024-02-14T13:18:56;13.30;99.90
13892;DHT22;7016;48.172;8.058;2024-02-14T13:21:47;13.20;99.90
13892;DHT22;7016;48.172;8.058;2024-02-14T13:24:35;13.20;99.90
13892;DHT22;7016;48.172;8.058;2024-02-14T13:27:21;13.20;99.90
13892;DHT22;7016;48.172;8.058;2024-02-14T13:30:09;13.30;99.90
13892;DHT22;7016;48.172;8.058;2024-02-14T13:32:55;13.30;99.90
13892;DHT22;7016;48.172;8.058;2024-02-14T13:35:41;13.40;99.90
13892;DHT22;7016;48.172;8.058;2024-02-14T13:38:28;13.30;99.90
13892;DHT22;7016;48.172;8.058;2024-02-14T13:41:20;13.40;99.90
13892;DHT22;7016;48.172;8.058;2024-02-14T13:44:08;13.40;99.90
13892;DHT22;7016;48.172;8.058;2024-02-14T13:46:54;13.40;99.90
13892;DHT22;7016;48.172;8.058;2024-02-14T13:49:40;13.40;99.90
13892;DHT22;7016;48.172;8.058;2024-02-14T13:52:27;13.50;99.90
13892;DHT22;7016;48.172;8.058;2024-02-14T13:55:13;13.50;99.90
13892;DHT22;7016;48.172;8.058;2024-02-14T13:58:01;13.50;99.90
13892;DHT22;7016;48.172;8.058;2024-02-14T14:00:51;13.40;99.90
13892;DHT22;7016;48.172;8.058;2024-02-14T14:03:41;13.40;99.90
13892;DHT22;7016;48.172;8.058;2024-02-14T14:06:27;13.40;99.90
13892;DHT22;7016;48.172;8.058;2024-02-14T14:09:14;13.50;99.90
13892;DHT22;7016;48.172;8.058;2024-02-14T14:12:00;13.60;99.90
13892;DHT22;7016;48.172;8.058;2024-02-14T14:14:46;13.50;99.90
13892;DHT22;7016;48.172;8.058;2024-02-14T14:17:34;13.40;99.90
13892;DHT22;7016;48.172;8.058;2024-02-14T14:20:24;13.30;99.90
13892;DHT22;7016;48.172;8.058;2024-02-14T14:23:10;13.40;99.90
13892;DHT22;7016;48.172;8.058;2024-02-14T14:25:56;13.60;99.90
13892;DHT22;7016;48.172;8.058;2024-02-14T14:28:42;13.60;99.90
13892;DHT22;7016;48.172;8.058;2024-02-14T14:31:28;13.50;99.90
13892;DHT22;7016;48.172;8.058;2024-02-14T14:34:14;13.50;99.90
13892;DHT22;7016;48.172;8.058;2024-02-14T14:37:02;13.50;99.90
13892;DHT22;7016;48.172;8.058;2024-02-14T14:39:48;13.40;99.90
13892;DHT22;7016;48.172;8.058;2024-02-14T14:42:34;13.50;99.90
13892;DHT22;7016;48.172;8.058;2024-02-14T14:45:20;13.70;99.90
13892;DHT22;7016;48.172;8.058;2024-02-14T14:48:07;13.70;99.90
13892;DHT22;7016;48.172;8.058;2024-02-14T14:50:54;13.60;99.90
13892;DHT22;7016;48.172;8.058;2024-02-14T14:53:40;13.40;99.90
13892;DHT22;7016;48.172;8.058;2024-02-14T14:56:36;13.40;99.90
13892;DHT22;7016;48.172;8.058;2024-02-14T14:59:22;13.40;99.90
13892;DHT22;7016;48.172;8.058;2024-02-14T15:02:09;13.40;99.90
13892;DHT22;7016;48.172;8.058;2024-02-14T15:04:55;13.40;99.90
13892;DHT22;7016;48.172;8.058;2024-02-14T15:07:41;13.40;99.90
13892;DHT22;7016;48.172;8.058;2024-02-14T15:10:28;13.50;99.90
13892;DHT22;7016;48.172;8.058;2024-02-14T15:13:14;13.50;99.90
13892;DHT22;7016;48.172;8.058;2024-02-14T15:16:00;13.60;99.90
13892;DHT22;7016;48.172;8.058;2024-02-14T15:18:49;13.60;99.90
13892;DHT22;7016;48.172;8.058;2024-02-14T15:21:36;13.80;99.90
13892;DHT22;7016;48.172;8.058;2024-02-14T15:24:25;13.70;99.90
13892;DHT22;7016;48.172;8.058;2024-02-14T15:27:12;13.60;99.90
13892;DHT22;7016;48.172;8.058;2024-02-14T15:30:07;13.60;99.90
13892;DHT22;7016;48.172;8.058;2024-02-14T15:33:12;13.30;99.90
13892;DHT22;7016;48.172;8.058;2024-02-14T15:36:10;13.20;99.90
13892;DHT22;7016;48.172;8.058;2024-02-14T15:39:02;13.20;99.90
13892;DHT22;7016;48.172;8.058;2024-02-14T15:41:49;13.10;99.90
13892;DHT22;7016;48.172;8.058;2024-02-14T15:44:35;13.20;99.90
13892;DHT22;7016;48.172;8.058;2024-02-14T15:47:21;13.20;99.90
13892;DHT22;7016;48.172;8.058;2024-02-14T15:50:07;13.30;99.90
13892;DHT22;7016;48.172;8.058;2024-02-14T15:52:57;13.30;99.90
13892;DHT22;7016;48.172;8.058;2024-02-14T15:55:45;13.30;99.90
13892;DHT22;7016;48.172;8.058;2024-02-14T15:58:32;13.30;99.90
13892;DHT22;7016;48.172;8.058;2024-02-14T16:01:18;13.40;99.90
13892;DHT22;7016;48.172;8.058;2024-02-14T16:04:11;13.20;99.90
13892;DHT22;7016;48.172;8.058;2024-02-14T16:06:57;12.90;99.90
13892;DHT22;7016;48.172;8.058;2024-02-14T16:09:43;13.00;99.90
13892;DHT22;7016;48.172;8.058;2024-02-14T16:12:30;13.10;99.90
13892;DHT22;7016;48.172;8.058;2024-02-14T16:15:17;13.30;99.90
13892;DHT22;7016;48.172;8.058;2024-02-14T16:18:03;13.10;99.90
13892;DHT22;7016;48.172;8.058;2024-02-14T16:20:49;13.10;99.90
13892;DHT22;7016;48.172;8.058;2024-02-14T16:23:43;13.30;99.90
13892;DHT22;7016;48.172;8.058;2024-02-14T16:26:34;13.30;99.90
13892;DHT22;7016;48.172;8.058;2024-02-14T16:29:21;13.30;99.90
13892;DHT22;7016;48.172;8.058;2024-02-14T16:32:07;13.40;99.90
13892;DHT22;7016;48.172;8.058;2024-02-14T16:34:53;13.40;99.90
13892;DHT22;7016;48.172;8.058;2024-02-14T16:37:39;13.50;99.90
13892;DHT22;7016;48.172;8.058;2024-02-14T16:40:26;13.60;99.90
13892;DHT22;7016;48.172;8.058;2024-02-14T16:43:17;13.70;99.90
13892;DHT22;7016;48.172;8.058;2024-02-14T16:46:05;13.60;99.90
13892;DHT22;7016;48.172;8.058;2024-02-14T16:48:51;13.70;99.90
13892;DHT22;7016;48.172;8.058;2024-02-14T16:51:38;13.60;99.90
13892;DHT22;7016;48.172;8.058;2024-02-14T16:54:24;13.60;99.90
13892;DHT22;7016;48.172;8.058;2024-02-14T16:57:14;13.60;99.90
13892;DHT22;7016;48.172;8.058;2024-02-14T17:00:00;13.50;99.90
13892;DHT22;7016;48.172;8.058;2024-02-14T17:02:47;13.50;99.90
13892;DHT22;7016;48.172;8.058;2024-02-14T17:05:33;13.40;99.90
13892;DHT22;7016;48.172;8.058;2024-02-14T17:08:21;13.40;99.90
13892;DHT22;7016;48.172;8.058;2024-02-14T17:11:13;13.50;99.90
13892;DHT22;7016;48.172;8.058;2024-02-14T17:14:01;13.40;99.90
13892;DHT22;7016;48.172;8.058;2024-02-14T17:16:49;13.50;99.90
13892;DHT22;7016;48.172;8.058;2024-02-14T17:19:39;13.60;99.90
13892;DHT22;7016;48.172;8.058;2024-02-14T17:22:26;13.70;99.90
13892;DHT22;7016;48.172;8.058;2024-02-14T17:25:12;13.70;99.90
13892;DHT22;7016;48.172;8.058;2024-02-14T17:27:58;13.60;99.90
13892;DHT22;7016;48.172;8.058;2024-02-14T17:30:44;13.50;99.90
13892;DHT22;7016;48.172;8.058;2024-02-14T17:33:31;13.50;99.90
13892;DHT22;7016;48.172;8.058;2024-02-14T17:36:17;13.50;99.90
13892;DHT22;7016;48.172;8.058;2024-02-14T17:39:03;13.60;99.90
13892;DHT22;7016;48.172;8.058;2024-02-14T17:41:52;13.50;99.90
13892;DHT22;7016;48.172;8.058;2024-02-14T17:44:46;13.50;99.90
13892;DHT22;7016;48.172;8.058;2024-02-14T17:47:36;13.50;99.90
13892;DHT22;7016;48.172;8.058;2024-02-14T17:50:23;13.60;99.90
13892;DHT22;7016;48.172;8.058;2024-02-14T17:53:12;13.50;99.90
13892;DHT22;7016;48.172;8.058;2024-02-14T17:55:58;13.60;99.90
13892;DHT22;7016;48.172;8.058;2024-02-14T17:58:44;13.60;99.90
13892;DHT22;7016;48.172;8.058;2024-02-14T18:01:31;13.60;99.90
13892;DHT22;7016;48.172;8.058;2024-02-14T18:04:20;13.40;99.90
13892;DHT22;7016;48.172;8.058;2024-02-14T18:07:06;13.30;99.90
13892;DHT22;7016;48.172;8.058;2024-02-14T18:09:52;13.30;99.90